SWR9VE LEBL-LSZH
Flight info
| Callsign | SWR9VE |
|---|---|
| Flight time | 1h 15m |
| Altitude | 34000 |
| Route | DALIN DCT PIVUS DCT DIBER DCT ADITA DCT MAXIR DCT LUSOL DCT BODRU DCT OKTET DCT IRMAR DCT KINES DCT VANAS DCT MOBLO DCT LAMUR DCT KORED N871 BERSU |
| Aircraft | A321/M-SDE3FGHIRWY/LB1 |
Departure
| Time | 2026-05-04 06:36 |
|---|---|
| Airport | Josep Tarradellas Barcelona-El Prat Airport (LEBL) |
Arrival
| Time | 2026-05-04 07:52 |
|---|---|
| Airport | Zürich Airport (LSZH) |
| Time | Latitude | Longitude | Altitude | Speed | Heading |
|---|---|---|---|---|---|
| 2026-05-04 06:03 | 41.28974 | 2.07903 | 19 ft | 0 kts | 335° |
| 2026-05-04 06:26 | 41.28965 | 2.07908 | 19 ft | 4 kts | 335° |
| 2026-05-04 06:26 | 41.28949 | 2.07918 | 21 ft | 4 kts | 339° |
| 2026-05-04 06:27 | 41.28892 | 2.07900 | 19 ft | 0 kts | 65° |
| 2026-05-04 06:30 | 41.28899 | 2.07922 | 20 ft | 4 kts | 65° |
| 2026-05-04 06:30 | 41.28933 | 2.08019 | 21 ft | 15 kts | 65° |
| 2026-05-04 06:31 | 41.28952 | 2.08107 | 19 ft | 6 kts | 122° |
| 2026-05-04 06:31 | 41.28891 | 2.08155 | 19 ft | 12 kts | 158° |
| 2026-05-04 06:31 | 41.28816 | 2.08200 | 17 ft | 13 kts | 156° |
| 2026-05-04 06:31 | 41.28733 | 2.08231 | 16 ft | 12 kts | 170° |
| 2026-05-04 06:32 | 41.28719 | 2.08312 | 17 ft | 14 kts | 69° |
| 2026-05-04 06:33 | 41.29020 | 2.09189 | 19 ft | 17 kts | 65° |
| 2026-05-04 06:34 | 41.29078 | 2.09360 | 19 ft | 21 kts | 65° |
| 2026-05-04 06:34 | 41.29138 | 2.09533 | 17 ft | 20 kts | 66° |
| 2026-05-04 06:34 | 41.29195 | 2.09696 | 17 ft | 19 kts | 65° |
| 2026-05-04 06:34 | 41.29244 | 2.09843 | 17 ft | 16 kts | 65° |
| 2026-05-04 06:35 | 41.29246 | 2.09972 | 15 ft | 14 kts | 147° |
| 2026-05-04 06:36 | 41.25982 | 2.06009 | 1429 ft | 175 kts | 179° |
| 2026-05-04 06:37 | 41.24688 | 2.05985 | 1588 ft | 196 kts | 182° |
| 2026-05-04 06:37 | 41.23262 | 2.05935 | 1771 ft | 212 kts | 182° |
| 2026-05-04 06:37 | 41.21767 | 2.05871 | 2280 ft | 215 kts | 183° |
| 2026-05-04 06:37 | 41.20299 | 2.05814 | 2881 ft | 213 kts | 184° |
| 2026-05-04 06:38 | 41.18783 | 2.05759 | 3488 ft | 215 kts | 184° |
| 2026-05-04 06:38 | 41.17308 | 2.05698 | 4057 ft | 217 kts | 184° |
| 2026-05-04 06:40 | 41.12844 | 2.15393 | 7675 ft | 295 kts | 56° |
| 2026-05-04 06:40 | 41.14034 | 2.17635 | 8344 ft | 299 kts | 54° |
| 2026-05-04 06:40 | 41.15258 | 2.19882 | 9004 ft | 302 kts | 53° |
| 2026-05-04 06:40 | 41.16491 | 2.22166 | 9672 ft | 306 kts | 54° |
| 2026-05-04 06:41 | 41.17724 | 2.24494 | 10250 ft | 312 kts | 54° |
| 2026-05-04 06:41 | 41.19005 | 2.26951 | 10386 ft | 335 kts | 55° |
| 2026-05-04 06:41 | 41.20356 | 2.29580 | 10498 ft | 355 kts | 56° |
| 2026-05-04 06:41 | 41.21770 | 2.32359 | 10808 ft | 368 kts | 56° |
| 2026-05-04 06:42 | 41.23209 | 2.35199 | 11332 ft | 373 kts | 56° |
| 2026-05-04 06:42 | 41.24667 | 2.38085 | 11903 ft | 378 kts | 56° |
| 2026-05-04 06:42 | 41.26138 | 2.41006 | 12471 ft | 382 kts | 56° |
| 2026-05-04 06:44 | 41.36885 | 2.62312 | 16121 ft | 410 kts | 56° |
| 2026-05-04 06:44 | 41.38482 | 2.65487 | 16626 ft | 413 kts | 56° |
| 2026-05-04 06:44 | 41.40086 | 2.68685 | 17121 ft | 416 kts | 56° |
| 2026-05-04 06:45 | 41.41698 | 2.71904 | 17632 ft | 419 kts | 56° |
| 2026-05-04 06:45 | 41.43326 | 2.75153 | 18132 ft | 422 kts | 56° |
| 2026-05-04 06:45 | 41.44961 | 2.78419 | 18557 ft | 426 kts | 56° |
| 2026-05-04 06:45 | 41.46613 | 2.81721 | 18963 ft | 429 kts | 56° |
| 2026-05-04 06:46 | 41.48273 | 2.85042 | 19360 ft | 432 kts | 56° |
| 2026-05-04 06:46 | 41.49940 | 2.88386 | 19755 ft | 435 kts | 56° |
| 2026-05-04 06:46 | 41.51620 | 2.91761 | 20151 ft | 438 kts | 56° |
| 2026-05-04 06:46 | 41.53311 | 2.95162 | 20560 ft | 441 kts | 56° |
| 2026-05-04 06:48 | 41.65429 | 3.19635 | 23212 ft | 462 kts | 56° |
| 2026-05-04 06:48 | 41.67203 | 3.23232 | 23565 ft | 465 kts | 56° |
| 2026-05-04 06:49 | 41.68986 | 3.26854 | 23883 ft | 468 kts | 56° |
| 2026-05-04 06:50 | 41.79531 | 3.54287 | 26008 ft | 483 kts | 67° |
| 2026-05-04 06:51 | 41.80899 | 3.58415 | 26299 ft | 485 kts | 67° |
| 2026-05-04 06:51 | 41.82269 | 3.62552 | 26577 ft | 488 kts | 66° |
| 2026-05-04 06:51 | 41.83648 | 3.66719 | 26860 ft | 490 kts | 67° |
| 2026-05-04 06:51 | 41.85031 | 3.70902 | 27135 ft | 492 kts | 67° |
| 2026-05-04 06:52 | 41.86424 | 3.75113 | 27400 ft | 494 kts | 67° |
| 2026-05-04 06:52 | 41.87814 | 3.79336 | 27677 ft | 496 kts | 67° |
| 2026-05-04 06:52 | 41.89207 | 3.83586 | 27932 ft | 498 kts | 67° |
| 2026-05-04 06:52 | 41.90599 | 3.87852 | 28190 ft | 500 kts | 67° |
| 2026-05-04 06:53 | 41.91995 | 3.92139 | 28441 ft | 502 kts | 67° |
| 2026-05-04 06:53 | 41.93397 | 3.96436 | 28763 ft | 503 kts | 67° |
| 2026-05-04 06:53 | 41.94805 | 4.00750 | 29061 ft | 504 kts | 67° |
| 2026-05-04 06:53 | 41.96210 | 4.05067 | 29318 ft | 506 kts | 67° |
| 2026-05-04 06:54 | 41.97617 | 4.09411 | 29565 ft | 508 kts | 68° |
| 2026-05-04 06:54 | 41.99026 | 4.13761 | 29904 ft | 507 kts | 67° |
| 2026-05-04 06:54 | 42.00436 | 4.18109 | 30222 ft | 507 kts | 68° |
| 2026-05-04 06:54 | 42.01842 | 4.22451 | 30483 ft | 506 kts | 67° |
| 2026-05-04 06:55 | 42.03245 | 4.26792 | 30783 ft | 506 kts | 67° |
| 2026-05-04 06:55 | 42.04643 | 4.31128 | 31086 ft | 505 kts | 67° |
| 2026-05-04 06:55 | 42.06053 | 4.35460 | 31387 ft | 505 kts | 65° |
| 2026-05-04 06:55 | 42.07756 | 4.39593 | 31681 ft | 504 kts | 56° |
| 2026-05-04 06:56 | 42.09851 | 4.43366 | 31989 ft | 503 kts | 47° |
| 2026-05-04 06:57 | 42.27786 | 4.65359 | 33980 ft | 493 kts | 39° |
| 2026-05-04 06:58 | 42.32835 | 4.71470 | 34002 ft | 489 kts | 39° |
| 2026-05-04 06:58 | 42.37899 | 4.77606 | 34012 ft | 489 kts | 39° |
| 2026-05-04 06:59 | 42.42956 | 4.83764 | 34010 ft | 489 kts | 39° |
| 2026-05-04 06:59 | 42.48004 | 4.89924 | 34016 ft | 489 kts | 39° |
| 2026-05-04 07:01 | 42.68161 | 5.14640 | 34037 ft | 488 kts | 39° |
| 2026-05-04 07:02 | 42.73187 | 5.20843 | 34033 ft | 487 kts | 39° |
| 2026-05-04 07:02 | 42.78210 | 5.27044 | 34039 ft | 487 kts | 39° |
| 2026-05-04 07:03 | 42.83199 | 5.33214 | 34028 ft | 488 kts | 40° |
| 2026-05-04 07:03 | 42.88212 | 5.39441 | 34035 ft | 487 kts | 39° |
| 2026-05-04 07:04 | 42.93206 | 5.45668 | 34063 ft | 486 kts | 40° |
| 2026-05-04 07:04 | 42.98193 | 5.51899 | 34059 ft | 485 kts | 40° |
| 2026-05-04 07:05 | 43.03174 | 5.58123 | 34064 ft | 485 kts | 40° |
| 2026-05-04 07:05 | 43.08145 | 5.64350 | 34066 ft | 485 kts | 40° |
| 2026-05-04 07:06 | 43.15593 | 5.73712 | 34066 ft | 484 kts | 41° |
| 2026-05-04 07:07 | 43.20540 | 5.79959 | 34091 ft | 483 kts | 41° |
| 2026-05-04 07:08 | 43.38103 | 6.01089 | 34102 ft | 477 kts | 26° |
| 2026-05-04 07:09 | 43.41096 | 6.03003 | 34099 ft | 473 kts | 17° |
| 2026-05-04 07:09 | 43.47447 | 6.04865 | 34095 ft | 464 kts | 360° |
| 2026-05-04 07:10 | 43.53898 | 6.05489 | 34081 ft | 465 kts | 0° |
| 2026-05-04 07:12 | 43.79624 | 6.09607 | 34074 ft | 473 kts | 20° |
| 2026-05-04 07:12 | 43.85570 | 6.13573 | 34089 ft | 475 kts | 24° |
| 2026-05-04 07:13 | 43.91508 | 6.17630 | 34097 ft | 476 kts | 24° |
| 2026-05-04 07:13 | 43.97406 | 6.21662 | 34095 ft | 475 kts | 24° |
| 2026-05-04 07:14 | 44.11263 | 6.31159 | 34112 ft | 475 kts | 25° |
| 2026-05-04 07:15 | 44.17189 | 6.35248 | 34100 ft | 475 kts | 25° |
| 2026-05-04 07:15 | 44.23111 | 6.39336 | 34096 ft | 476 kts | 25° |
| 2026-05-04 07:16 | 44.29044 | 6.43429 | 34095 ft | 476 kts | 25° |
| 2026-05-04 07:16 | 44.34987 | 6.47531 | 34084 ft | 476 kts | 25° |
| 2026-05-04 07:17 | 44.40927 | 6.51666 | 34101 ft | 481 kts | 25° |
| 2026-05-04 07:17 | 44.46991 | 6.55897 | 34100 ft | 491 kts | 25° |
| 2026-05-04 07:18 | 44.53132 | 6.60193 | 34111 ft | 494 kts | 25° |
| 2026-05-04 07:18 | 44.59244 | 6.64460 | 34096 ft | 494 kts | 25° |
| 2026-05-04 07:19 | 44.65395 | 6.68757 | 34119 ft | 494 kts | 25° |
| 2026-05-04 07:19 | 44.71542 | 6.73075 | 34124 ft | 494 kts | 25° |
| 2026-05-04 07:20 | 44.77774 | 6.77115 | 34106 ft | 491 kts | 15° |
| 2026-05-04 07:20 | 44.84436 | 6.78700 | 34102 ft | 483 kts | 356° |
| 2026-05-04 07:22 | 45.11221 | 6.76987 | 34115 ft | 483 kts | 353° |
| 2026-05-04 07:23 | 45.17960 | 6.76539 | 34104 ft | 485 kts | 353° |
| 2026-05-04 07:23 | 45.24703 | 6.76096 | 34111 ft | 485 kts | 353° |
| 2026-05-04 07:24 | 45.31454 | 6.75645 | 34106 ft | 485 kts | 353° |
| 2026-05-04 07:24 | 45.38198 | 6.75193 | 34099 ft | 485 kts | 353° |
| 2026-05-04 07:26 | 45.65173 | 6.73356 | 34070 ft | 484 kts | 353° |
| 2026-05-04 07:27 | 45.71879 | 6.72892 | 34053 ft | 482 kts | 353° |
| 2026-05-04 07:27 | 45.78592 | 6.72696 | 34064 ft | 486 kts | 1° |
| 2026-05-04 07:28 | 45.81943 | 6.73481 | 34056 ft | 490 kts | 12° |
| 2026-05-04 07:28 | 45.85190 | 6.75028 | 34049 ft | 494 kts | 21° |
| 2026-05-04 07:28 | 45.91454 | 6.79114 | 34038 ft | 495 kts | 22° |
| 2026-05-04 07:29 | 45.97675 | 6.83174 | 34042 ft | 496 kts | 22° |
| 2026-05-04 07:29 | 46.03964 | 6.87283 | 34040 ft | 496 kts | 22° |
| 2026-05-04 07:30 | 46.10242 | 6.91413 | 34031 ft | 496 kts | 22° |
| 2026-05-04 07:30 | 46.16529 | 6.95560 | 34048 ft | 497 kts | 22° |
| 2026-05-04 07:31 | 46.22816 | 6.99709 | 34037 ft | 497 kts | 22° |
| 2026-05-04 07:33 | 46.48035 | 7.16492 | 34039 ft | 499 kts | 22° |
| 2026-05-04 07:33 | 46.54341 | 7.20715 | 34039 ft | 499 kts | 22° |
| 2026-05-04 07:34 | 46.60651 | 7.24940 | 34040 ft | 499 kts | 22° |
| 2026-05-04 07:34 | 46.66982 | 7.29189 | 33214 ft | 505 kts | 22° |
| 2026-05-04 07:35 | 46.70163 | 7.31324 | 32599 ft | 503 kts | 22° |
| 2026-05-04 07:35 | 46.73299 | 7.33437 | 31969 ft | 502 kts | 23° |
| 2026-05-04 07:35 | 46.76503 | 7.35606 | 31349 ft | 501 kts | 23° |
| 2026-05-04 07:35 | 46.79626 | 7.37725 | 30736 ft | 501 kts | 23° |
| 2026-05-04 07:36 | 46.82729 | 7.40053 | 30108 ft | 503 kts | 31° |
| 2026-05-04 07:36 | 46.85546 | 7.43109 | 29510 ft | 504 kts | 42° |
| 2026-05-04 07:38 | 47.00972 | 7.70746 | 25580 ft | 490 kts | 52° |
| 2026-05-04 07:38 | 47.03082 | 7.74640 | 25047 ft | 485 kts | 52° |
| 2026-05-04 07:38 | 47.05156 | 7.78479 | 24003 ft | 477 kts | 52° |
| 2026-05-04 07:38 | 47.07194 | 7.82261 | 22710 ft | 467 kts | 52° |
| 2026-05-04 07:39 | 47.09173 | 7.85939 | 20897 ft | 467 kts | 52° |
| 2026-05-04 07:39 | 47.11198 | 7.89718 | 19307 ft | 462 kts | 53° |
| 2026-05-04 07:39 | 47.13127 | 7.93403 | 18354 ft | 445 kts | 58° |
| 2026-05-04 07:39 | 47.14538 | 7.97230 | 18001 ft | 426 kts | 67° |
| 2026-05-04 07:40 | 47.15807 | 8.01240 | 17715 ft | 428 kts | 66° |
| 2026-05-04 07:40 | 47.17071 | 8.05202 | 17464 ft | 428 kts | 66° |
| 2026-05-04 07:40 | 47.18350 | 8.09180 | 17222 ft | 432 kts | 66° |
| 2026-05-04 07:40 | 47.19619 | 8.13121 | 16907 ft | 431 kts | 66° |
| 2026-05-04 07:41 | 47.21059 | 8.16964 | 16337 ft | 429 kts | 53° |
| 2026-05-04 07:41 | 47.23260 | 8.19861 | 15770 ft | 425 kts | 29° |
| 2026-05-04 07:41 | 47.26009 | 8.21294 | 15251 ft | 418 kts | 6° |
| 2026-05-04 07:41 | 47.28861 | 8.21069 | 14748 ft | 409 kts | 342° |
| 2026-05-04 07:42 | 47.31501 | 8.19588 | 14275 ft | 404 kts | 331° |
| 2026-05-04 07:42 | 47.33955 | 8.17607 | 13756 ft | 400 kts | 326° |
| 2026-05-04 07:42 | 47.36307 | 8.15439 | 13221 ft | 398 kts | 324° |
| 2026-05-04 07:42 | 47.38645 | 8.13279 | 12709 ft | 395 kts | 326° |
| 2026-05-04 07:43 | 47.40981 | 8.11255 | 12510 ft | 382 kts | 328° |
| 2026-05-04 07:43 | 47.43262 | 8.09425 | 12373 ft | 362 kts | 330° |
| 2026-05-04 07:43 | 47.45434 | 8.07786 | 12260 ft | 340 kts | 330° |
| 2026-05-04 07:43 | 47.47510 | 8.06393 | 11993 ft | 319 kts | 340° |
| 2026-05-04 07:44 | 47.49657 | 8.05796 | 11398 ft | 312 kts | 357° |
| 2026-05-04 07:44 | 47.51804 | 8.06064 | 10724 ft | 308 kts | 14° |
| 2026-05-04 07:44 | 47.53792 | 8.07138 | 10112 ft | 302 kts | 31° |
| 2026-05-04 07:44 | 47.55566 | 8.08771 | 9969 ft | 301 kts | 34° |
| 2026-05-04 07:45 | 47.57361 | 8.10427 | 9519 ft | 304 kts | 33° |
| 2026-05-04 07:45 | 47.59158 | 8.12062 | 9187 ft | 301 kts | 33° |
| 2026-05-04 07:45 | 47.60933 | 8.13672 | 8771 ft | 301 kts | 34° |
| 2026-05-04 07:45 | 47.62558 | 8.15543 | 8446 ft | 290 kts | 47° |
| 2026-05-04 07:46 | 47.63938 | 8.17692 | 7966 ft | 286 kts | 50° |
| 2026-05-04 07:46 | 47.65288 | 8.19826 | 7571 ft | 282 kts | 49° |
| 2026-05-04 07:46 | 47.66601 | 8.21953 | 7183 ft | 277 kts | 54° |
| 2026-05-04 07:46 | 47.67373 | 8.24492 | 6710 ft | 269 kts | 86° |
| 2026-05-04 07:47 | 47.67089 | 8.27152 | 6449 ft | 264 kts | 115° |
| 2026-05-04 07:47 | 47.65965 | 8.29280 | 6123 ft | 261 kts | 136° |
| 2026-05-04 07:47 | 47.64667 | 8.31044 | 5780 ft | 246 kts | 137° |
| 2026-05-04 07:49 | 47.56113 | 8.42778 | 3558 ft | 229 kts | 136° |
| 2026-05-04 07:49 | 47.54965 | 8.44353 | 3278 ft | 218 kts | 137° |
| 2026-05-04 07:49 | 47.53889 | 8.45826 | 2964 ft | 202 kts | 136° |
| 2026-05-04 07:50 | 47.52921 | 8.47153 | 2737 ft | 178 kts | 136° |
| 2026-05-04 07:50 | 47.52060 | 8.48334 | 2497 ft | 162 kts | 136° |
| 2026-05-04 07:50 | 47.51254 | 8.49438 | 2272 ft | 155 kts | 137° |
| 2026-05-04 07:50 | 47.50475 | 8.50518 | 2056 ft | 152 kts | 137° |
| 2026-05-04 07:51 | 47.49712 | 8.51572 | 1873 ft | 149 kts | 137° |
| 2026-05-04 07:51 | 47.48947 | 8.52606 | 1673 ft | 150 kts | 139° |
| 2026-05-04 07:51 | 47.48176 | 8.53646 | 1455 ft | 151 kts | 137° |
| 2026-05-04 07:51 | 47.47460 | 8.54631 | 1401 ft | 119 kts | 138° |
| 2026-05-04 07:52 | 47.46977 | 8.55291 | 1389 ft | 80 kts | 137° |
| 2026-05-04 07:52 | 47.46597 | 8.55810 | 1400 ft | 65 kts | 137° |
| 2026-05-04 07:52 | 47.46309 | 8.56200 | 1414 ft | 41 kts | 139° |
| 2026-05-04 07:52 | 47.46134 | 8.56343 | 1410 ft | 24 kts | 180° |
| 2026-05-04 07:53 | 47.46026 | 8.56327 | 1411 ft | 13 kts | 185° |
| 2026-05-04 07:54 | 47.45825 | 8.56295 | 1415 ft | 0 kts | 186° |
| 2026-05-04 07:55 | 47.45802 | 8.56292 | 1421 ft | 11 kts | 186° |
| 2026-05-04 07:55 | 47.45698 | 8.56276 | 1413 ft | 16 kts | 186° |
| 2026-05-04 07:55 | 47.45583 | 8.56258 | 1414 ft | 17 kts | 186° |
| 2026-05-04 07:55 | 47.45478 | 8.56207 | 1411 ft | 14 kts | 246° |
| 2026-05-04 07:56 | 47.45484 | 8.56081 | 1411 ft | 12 kts | 277° |
| 2026-05-04 07:56 | 47.45495 | 8.55934 | 1409 ft | 9 kts | 276° |
| 2026-05-04 07:56 | 47.45486 | 8.55889 | 1415 ft | 5 kts | 198° |
| 2026-05-04 07:56 | 47.45422 | 8.55873 | 1411 ft | 5 kts | 186° |
| 2026-05-04 07:57 | 47.45421 | 8.55873 | 1407 ft | 0 kts | 186° |